createdAt,value
2019-05-16T00:02:18.572Z,81.35
2019-05-16T00:04:51.596Z,81.58
2019-05-16T00:07:24.765Z,81.75
2019-05-16T00:09:59.009Z,82.54
2019-05-16T00:12:32.590Z,82.61
2019-05-16T00:15:06.055Z,83.14
2019-05-16T00:17:39.504Z,83.03
2019-05-16T00:20:14.088Z,82.98
2019-05-16T00:22:48.460Z,83.58
2019-05-16T00:25:21.957Z,84.70
2019-05-16T00:27:54.905Z,85.10
2019-05-16T00:30:28.746Z,85.72
2019-05-16T00:33:02.373Z,86.15
2019-05-16T00:35:35.738Z,86.34
2019-05-16T00:38:08.945Z,87.09
2019-05-16T00:40:42.091Z,87.34
2019-05-16T00:43:15.299Z,87.23
2019-05-16T00:45:48.734Z,87.53
2019-05-16T00:48:22.179Z,87.53
2019-05-16T00:50:55.157Z,88.01
2019-05-16T00:53:28.912Z,88.01
2019-05-16T00:56:03.009Z,87.97
2019-05-16T00:58:38.031Z,87.97
2019-05-16T01:01:11.345Z,88.20
2019-05-16T01:03:44.798Z,88.20
2019-05-16T01:06:22.533Z,87.79
2019-05-16T01:08:52.435Z,87.84
2019-05-16T01:11:27.663Z,87.61
2019-05-16T01:14:00.528Z,87.61
2019-05-16T01:16:33.461Z,87.99
2019-05-16T01:19:08.514Z,87.33
2019-05-16T01:21:41.165Z,87.33
2019-05-16T01:24:14.087Z,87.32
2019-05-16T01:26:48.472Z,87.50
2019-05-16T01:29:21.517Z,87.43
2019-05-16T01:31:54.450Z,87.78
2019-05-16T01:34:28.465Z,87.64
2019-05-16T01:37:01.502Z,88.23
2019-05-16T01:39:34.564Z,88.23
2019-05-16T01:42:08.152Z,88.21
2019-05-16T01:44:41.583Z,88.60
2019-05-16T01:47:14.824Z,88.61
2019-05-16T01:49:48.711Z,88.61
2019-05-16T01:52:21.785Z,88.34
2019-05-16T01:54:54.708Z,88.34
2019-05-16T01:57:28.325Z,88.55
2019-05-16T02:00:01.358Z,88.64
2019-05-16T02:02:34.254Z,88.64
2019-05-16T02:05:08.410Z,88.71
2019-05-16T02:07:41.498Z,88.48
2019-05-16T02:10:15.072Z,88.10
2019-05-16T02:12:49.025Z,88.10
2019-05-16T02:15:22.264Z,87.24
2019-05-16T02:17:55.134Z,86.47
2019-05-16T02:20:28.343Z,86.47
2019-05-16T02:23:02.010Z,86.62
2019-05-16T02:25:35.106Z,85.92
2019-05-16T02:28:08.136Z,85.11
2019-05-16T02:30:42.185Z,85.11
2019-05-16T02:33:15.530Z,84.16
2019-05-16T02:35:51.627Z,83.01
2019-05-16T02:38:23.118Z,83.01
2019-05-16T02:40:56.159Z,82.65
2019-05-16T02:43:31.271Z,82.28
2019-05-16T02:46:04.651Z,81.58
2019-05-16T02:48:40.821Z,81.86
2019-05-16T02:51:12.291Z,82.20
2019-05-16T02:53:45.555Z,82.30
2019-05-16T02:56:21.151Z,82.15
2019-05-16T02:58:54.041Z,81.05
2019-05-16T03:01:27.164Z,81.05
2019-05-16T03:04:01.743Z,80.03
2019-05-16T03:06:37.312Z,79.69
2019-05-16T03:09:11.519Z,78.48
2019-05-16T03:11:45.179Z,78.26
2019-05-16T03:14:21.240Z,76.79
2019-05-16T03:16:56.089Z,76.23
2019-05-16T03:19:31.293Z,74.92
2019-05-16T03:22:05.334Z,74.39
2019-05-16T03:24:41.738Z,73.17
2019-05-16T03:27:13.065Z,72.83
2019-05-16T03:29:45.975Z,73.15
2019-05-16T03:32:23.578Z,72.94
2019-05-16T03:34:55.079Z,72.66
2019-05-16T03:37:30.754Z,72.66
2019-05-16T03:40:03.729Z,71.47
2019-05-16T03:42:36.730Z,72.20
2019-05-16T03:45:10.778Z,71.55
2019-05-16T03:47:44.275Z,70.94
2019-05-16T03:50:17.458Z,70.79
2019-05-16T03:52:50.932Z,71.53
2019-05-16T03:55:24.096Z,71.36
2019-05-16T03:57:57.081Z,70.91
2019-05-16T04:00:52.474Z,71.15
2019-05-16T04:03:23.390Z,70.75
2019-05-16T04:05:56.342Z,70.15
2019-05-16T04:08:31.036Z,70.78
2019-05-16T04:11:04.433Z,70.32
2019-05-16T04:13:40.762Z,70.37
2019-05-16T04:16:13.084Z,70.91
2019-05-16T04:18:46.200Z,71.50
2019-05-16T04:21:21.793Z,71.50
2019-05-16T04:23:53.952Z,71.32
2019-05-16T04:26:26.815Z,72.05
2019-05-16T04:29:00.830Z,72.34
2019-05-16T04:31:34.106Z,72.39
2019-05-16T04:34:07.113Z,72.39
2019-05-16T04:36:40.692Z,71.93
2019-05-16T04:39:13.911Z,71.18
2019-05-16T04:41:47.281Z,71.18
2019-05-16T04:44:21.301Z,71.12
2019-05-16T04:46:54.645Z,71.12
2019-05-16T04:49:31.666Z,72.74
2019-05-16T04:52:03.398Z,72.74
2019-05-16T04:54:36.871Z,73.61
2019-05-16T04:57:11.910Z,73.60
2019-05-16T04:59:44.554Z,73.42
2019-05-16T05:02:21.048Z,73.69
2019-05-16T05:04:52.465Z,73.19
2019-05-16T05:07:25.543Z,72.60
2019-05-16T05:10:00.663Z,73.82
2019-05-16T05:12:33.182Z,72.94
2019-05-16T05:15:10.859Z,72.94
2019-05-16T05:17:42.062Z,72.35
2019-05-16T05:20:15.326Z,71.11
2019-05-16T05:22:49.943Z,71.11
2019-05-16T05:25:23.073Z,71.20
2019-05-16T05:27:55.968Z,69.45
2019-05-16T05:30:30.327Z,69.78
2019-05-16T05:33:03.395Z,69.78
2019-05-16T05:35:36.389Z,68.03
2019-05-16T05:38:10.502Z,67.34
2019-05-16T05:40:43.537Z,67.34
2019-05-16T05:43:16.439Z,66.97
2019-05-16T05:45:51.215Z,64.92
2019-05-16T05:48:24.013Z,64.92
2019-05-16T05:50:57.251Z,62.39
2019-05-16T05:53:30.613Z,62.36
2019-05-16T05:56:03.790Z,62.36
2019-05-16T05:58:36.703Z,62.34
2019-05-16T06:01:11.178Z,61.76
2019-05-16T06:03:44.911Z,60.97
2019-05-16T06:06:17.976Z,60.84
2019-05-16T06:08:50.905Z,60.84
2019-05-16T06:11:23.840Z,60.42
2019-05-16T06:13:57.047Z,60.63
2019-05-16T06:16:30.811Z,60.19
2019-05-16T06:19:04.032Z,58.63
2019-05-16T06:21:37.025Z,59.28
2019-05-16T06:24:10.763Z,59.10
2019-05-16T06:26:44.047Z,57.30
2019-05-16T06:29:16.914Z,57.30
2019-05-16T06:31:49.819Z,57.91
2019-05-16T06:34:22.642Z,59.09
2019-05-16T06:36:55.648Z,56.51
2019-05-16T06:39:39.246Z,56.51
2019-05-16T06:42:03.250Z,56.08
2019-05-16T06:44:36.088Z,55.65
2019-05-16T06:47:16.938Z,55.24
2019-05-16T06:49:43.751Z,56.88
2019-05-16T06:52:16.611Z,56.45
2019-05-16T06:54:50.387Z,54.22
2019-05-16T06:57:24.033Z,54.22
2019-05-16T06:59:56.871Z,53.47
2019-05-16T07:02:34.191Z,52.94
2019-05-16T07:05:05.120Z,52.94
2019-05-16T07:07:40.176Z,53.29
2019-05-16T07:10:13.615Z,53.95
2019-05-16T07:12:46.550Z,53.50
2019-05-16T07:15:20.604Z,51.40
2019-05-16T07:17:53.778Z,51.40
2019-05-16T07:20:26.691Z,52.42
2019-05-16T07:23:00.764Z,50.89
2019-05-16T07:25:33.631Z,50.89
2019-05-16T07:28:06.517Z,49.29
2019-05-16T07:30:40.817Z,49.29
2019-05-16T07:33:13.798Z,48.49
2019-05-16T07:35:46.627Z,47.81
2019-05-16T07:38:20.406Z,45.99
2019-05-16T07:40:53.627Z,46.96
2019-05-16T07:43:26.569Z,46.96
2019-05-16T07:46:00.524Z,44.81
2019-05-16T07:48:33.879Z,42.69
2019-05-16T07:51:06.806Z,42.69
2019-05-16T07:53:40.582Z,43.64
2019-05-16T07:56:13.428Z,40.45
2019-05-16T07:58:46.309Z,40.45
2019-05-16T08:01:20.032Z,40.15
2019-05-16T08:03:53.610Z,40.15
2019-05-16T08:06:26.441Z,39.75
2019-05-16T08:09:00.174Z,39.75
2019-05-16T08:11:33.240Z,40.15
2019-05-16T08:14:06.309Z,40.67
2019-05-16T08:16:40.853Z,41.66
2019-05-16T08:19:13.905Z,41.45
2019-05-16T08:21:47.159Z,42.05
2019-05-16T08:24:20.677Z,41.38
2019-05-16T08:26:53.593Z,42.94
2019-05-16T08:29:26.762Z,42.94
2019-05-16T08:32:02.186Z,42.47
2019-05-16T08:34:34.513Z,40.68
2019-05-16T08:37:30.616Z,40.68
2019-05-16T08:39:41.929Z,40.49
2019-05-16T08:42:15.115Z,40.49
2019-05-16T08:44:51.425Z,41.50
2019-05-16T08:47:22.661Z,41.21
2019-05-16T08:49:55.523Z,41.55
2019-05-16T08:52:31.520Z,41.55
2019-05-16T08:55:03.749Z,41.42
2019-05-16T08:57:36.904Z,40.80
2019-05-16T09:00:15.099Z,39.46
2019-05-16T09:02:45.400Z,39.46
2019-05-16T09:05:22.290Z,39.51
2019-05-16T09:08:00.422Z,39.08
2019-05-16T09:10:49.981Z,39.77
2019-05-16T09:13:02.196Z,38.43
2019-05-16T09:15:38.872Z,37.79
2019-05-16T09:18:10.029Z,36.50
2019-05-16T09:20:43.139Z,36.50
2019-05-16T09:23:17.888Z,35.33
2019-05-16T09:25:50.642Z,35.33
2019-05-16T09:28:23.598Z,33.95
2019-05-16T09:30:57.735Z,32.71
2019-05-16T09:33:30.840Z,30.06
2019-05-16T09:36:03.761Z,30.06
2019-05-16T09:38:38.284Z,30.44
2019-05-16T09:41:11.475Z,32.52
2019-05-16T09:43:44.398Z,34.04
2019-05-16T09:46:17.373Z,33.95
2019-05-16T09:48:50.304Z,31.70
2019-05-16T09:51:23.248Z,33.18
2019-05-16T09:53:56.757Z,35.08
2019-05-16T09:56:29.983Z,35.08
2019-05-16T09:59:02.823Z,31.97
2019-05-16T10:01:37.089Z,31.97
2019-05-16T10:04:10.187Z,31.10
2019-05-16T10:06:43.205Z,33.80
2019-05-16T10:09:17.448Z,33.80
2019-05-16T10:12:05.497Z,34.91
2019-05-16T10:14:26.886Z,35.21
2019-05-16T10:16:59.977Z,35.40
2019-05-16T10:19:32.888Z,36.04
2019-05-16T10:22:07.311Z,36.36
2019-05-16T10:24:40.330Z,36.36
2019-05-16T10:27:13.451Z,33.79
2019-05-16T10:29:48.418Z,33.90
2019-05-16T10:32:21.440Z,34.99
2019-05-16T10:34:54.290Z,35.19
2019-05-16T10:37:27.113Z,37.16
2019-05-16T10:40:00.121Z,36.38
2019-05-16T10:42:33.061Z,36.05
2019-05-16T10:45:08.647Z,35.22
2019-05-16T10:47:41.799Z,35.22
2019-05-16T10:50:16.618Z,34.54
2019-05-16T10:53:12.886Z,33.86
2019-05-16T10:55:24.642Z,31.74
2019-05-16T10:57:57.520Z,31.96
2019-05-16T11:00:58.056Z,31.96
2019-05-16T11:03:06.526Z,27.36
2019-05-16T11:05:39.876Z,27.34
2019-05-16T11:08:12.848Z,27.34
2019-05-16T11:10:47.669Z,26.75
2019-05-16T11:13:20.562Z,26.81
2019-05-16T11:15:53.545Z,28.27
2019-05-16T11:18:27.267Z,27.51
2019-05-16T11:21:00.622Z,27.51
2019-05-16T11:23:33.487Z,26.71
2019-05-16T11:26:06.585Z,26.46
2019-05-16T11:28:39.478Z,26.95
2019-05-16T11:31:12.282Z,26.95
2019-05-16T11:33:47.555Z,27.41
2019-05-16T11:36:19.765Z,27.25
2019-05-16T11:38:57.321Z,26.91
2019-05-16T11:41:27.754Z,27.55
2019-05-16T11:44:00.881Z,30.52
2019-05-16T11:46:33.736Z,30.52
2019-05-16T11:49:06.722Z,30.09
2019-05-16T11:51:39.608Z,29.05
2019-05-16T11:54:12.698Z,28.77
2019-05-16T11:56:46.431Z,29.35
2019-05-16T11:59:19.328Z,30.82
2019-05-16T12:01:52.504Z,28.82
2019-05-16T12:04:27.878Z,27.42
2019-05-16T12:07:00.273Z,28.40
2019-05-16T12:09:35.086Z,25.60
2019-05-16T12:12:08.798Z,26.69
2019-05-16T12:14:41.996Z,27.59
2019-05-16T12:17:16.590Z,28.38
2019-05-16T12:19:52.741Z,28.46
2019-05-16T12:22:26.673Z,30.49
2019-05-16T12:24:59.637Z,30.55
2019-05-16T12:27:33.870Z,32.28
2019-05-16T12:30:13.328Z,33.48
2019-05-16T12:32:42.334Z,35.00
2019-05-16T12:35:17.594Z,34.76
2019-05-16T12:37:51.983Z,35.56
2019-05-16T12:40:26.780Z,34.03
2019-05-16T12:43:00.171Z,34.65
2019-05-16T12:45:33.214Z,34.80
2019-05-16T12:48:06.800Z,34.80
2019-05-16T12:50:39.887Z,34.24
2019-05-16T12:53:12.870Z,34.24
2019-05-16T12:55:47.690Z,31.41
2019-05-16T12:58:27.744Z,30.42
2019-05-16T13:00:57.756Z,30.06
2019-05-16T13:03:30.620Z,31.93
2019-05-16T13:06:03.693Z,34.58
2019-05-16T13:08:37.480Z,32.68
2019-05-16T13:11:10.737Z,32.68
2019-05-16T13:14:01.307Z,29.00
2019-05-16T13:16:18.275Z,31.39
2019-05-16T13:18:51.117Z,32.10
2019-05-16T13:21:23.987Z,33.74
2019-05-16T13:23:57.595Z,35.42
2019-05-16T13:26:30.670Z,38.00
2019-05-16T13:29:03.639Z,36.67
2019-05-16T13:31:37.719Z,35.33
2019-05-16T13:34:10.691Z,36.92
2019-05-16T13:36:43.541Z,37.35
2019-05-16T13:39:17.129Z,37.21
2019-05-16T13:41:50.140Z,38.32
2019-05-16T13:44:23.338Z,38.64
2019-05-16T13:46:56.935Z,40.66
2019-05-16T13:49:29.828Z,40.51
2019-05-16T13:52:03.132Z,39.29
2019-05-16T13:54:36.407Z,39.85
2019-05-16T13:57:09.258Z,40.41
2019-05-16T13:59:42.251Z,41.19
2019-05-16T14:02:17.389Z,42.85
2019-05-16T14:04:49.872Z,42.13
2019-05-16T14:07:22.789Z,43.61
2019-05-16T14:09:57.854Z,43.00
2019-05-16T14:12:30.690Z,44.26
2019-05-16T14:15:04.281Z,43.60
2019-05-16T14:17:37.643Z,44.22
2019-05-16T14:20:15.886Z,44.22
2019-05-16T14:22:46.052Z,45.94
2019-05-16T14:25:18.953Z,47.83
2019-05-16T14:27:51.880Z,49.21
2019-05-16T14:30:24.862Z,51.99
2019-05-16T14:33:01.168Z,55.03
2019-05-16T14:35:32.292Z,55.11
2019-05-16T14:38:05.231Z,55.50
2019-05-16T14:40:38.160Z,55.07
2019-05-16T14:43:11.070Z,53.96
2019-05-16T14:45:43.979Z,52.42
2019-05-16T14:48:18.378Z,52.42
2019-05-16T14:50:51.480Z,52.95
2019-05-16T14:53:28.195Z,53.16
2019-05-16T14:55:59.296Z,53.55
2019-05-16T14:58:32.252Z,53.11
2019-05-16T15:01:07.364Z,53.21
2019-05-16T15:03:40.061Z,52.58
2019-05-16T15:06:13.041Z,52.21
2019-05-16T15:08:47.437Z,53.25
2019-05-16T15:11:20.476Z,53.43
2019-05-16T15:13:53.364Z,53.47
2019-05-16T15:16:27.318Z,54.14
2019-05-16T15:19:00.442Z,54.56
2019-05-16T15:21:33.398Z,54.56
2019-05-16T15:24:07.016Z,55.11
2019-05-16T15:26:39.969Z,54.92
2019-05-16T15:29:12.927Z,54.95
2019-05-16T15:31:46.811Z,55.55
2019-05-16T15:34:20.074Z,56.26
2019-05-16T15:36:52.879Z,56.09
2019-05-16T15:39:27.641Z,56.72
2019-05-16T15:42:00.313Z,57.46
2019-05-16T15:44:33.226Z,57.49
2019-05-16T15:47:07.997Z,57.03
2019-05-16T15:49:41.305Z,58.67
2019-05-16T15:52:16.588Z,60.52
2019-05-16T15:54:49.882Z,61.01
2019-05-16T15:57:22.710Z,61.73
2019-05-16T15:59:57.563Z,62.57
2019-05-16T16:02:31.402Z,63.05
2019-05-16T16:05:07.169Z,63.18
2019-05-16T16:07:39.544Z,64.29
2019-05-16T16:10:12.761Z,65.17
2019-05-16T16:12:47.771Z,64.68
2019-05-16T16:15:20.258Z,65.97
2019-05-16T16:17:53.098Z,65.97
2019-05-16T16:20:27.302Z,66.25
2019-05-16T16:23:00.626Z,66.11
2019-05-16T16:25:33.787Z,67.35
2019-05-16T16:28:07.486Z,67.09
2019-05-16T16:30:40.767Z,66.27
2019-05-16T16:33:25.131Z,66.77
2019-05-16T16:35:48.293Z,66.67
2019-05-16T16:38:21.281Z,69.83
2019-05-16T16:40:54.174Z,69.83
2019-05-16T16:43:27.024Z,71.67
2019-05-16T16:46:08.894Z,72.78
2019-05-16T16:48:34.632Z,74.18
2019-05-16T16:51:07.521Z,77.05
2019-05-16T16:53:40.366Z,78.67
2019-05-16T16:56:13.363Z,78.67
2019-05-16T16:58:46.890Z,77.03
2019-05-16T17:01:20.091Z,77.54
2019-05-16T17:03:54.758Z,77.12
2019-05-16T17:06:27.586Z,76.64
2019-05-16T17:09:00.741Z,76.64
2019-05-16T17:11:33.640Z,75.99
2019-05-16T17:14:06.873Z,75.99
2019-05-16T17:16:40.382Z,75.22
2019-05-16T17:19:13.522Z,72.63
2019-05-16T17:21:55.426Z,72.63
2019-05-16T17:24:24.137Z,72.67
2019-05-16T17:26:57.757Z,73.44
2019-05-16T17:29:30.742Z,72.68
2019-05-16T17:32:08.922Z,72.68
2019-05-16T17:34:38.307Z,73.34
2019-05-16T17:37:11.197Z,72.27
2019-05-16T17:39:44.071Z,71.74
2019-05-16T17:42:16.962Z,72.33
2019-05-16T17:44:49.814Z,72.33
2019-05-16T17:47:22.679Z,71.67
2019-05-16T17:49:55.507Z,72.04
2019-05-16T17:52:28.411Z,71.43
2019-05-16T17:55:01.254Z,72.58
2019-05-16T17:57:34.230Z,72.13
2019-05-16T18:00:12.911Z,71.56
2019-05-16T18:02:43.745Z,71.67
2019-05-16T18:05:17.381Z,73.41
2019-05-16T18:07:50.361Z,73.41
2019-05-16T18:10:23.504Z,72.82
2019-05-16T18:12:56.918Z,73.50
2019-05-16T18:15:29.820Z,73.50
2019-05-16T18:18:02.756Z,74.28
2019-05-16T18:20:37.259Z,74.20
2019-05-16T18:23:10.522Z,74.52
2019-05-16T18:25:43.601Z,74.78
2019-05-16T18:28:17.543Z,75.03
2019-05-16T18:30:50.722Z,74.80
2019-05-16T18:33:23.716Z,75.12
2019-05-16T18:35:58.045Z,74.69
2019-05-16T18:38:31.348Z,74.69
2019-05-16T18:41:04.515Z,74.32
2019-05-16T18:43:37.679Z,74.25
2019-05-16T18:46:10.683Z,74.69
2019-05-16T18:48:43.702Z,73.78
2019-05-16T18:51:16.637Z,74.52
2019-05-16T18:53:49.651Z,74.35
2019-05-16T18:56:22.730Z,73.58
2019-05-16T18:58:57.236Z,73.18
2019-05-16T19:01:30.372Z,73.66
2019-05-16T19:04:03.836Z,73.82
2019-05-16T19:06:37.165Z,73.82
2019-05-16T19:09:10.234Z,74.20
2019-05-16T19:11:43.171Z,73.26
2019-05-16T19:14:16.877Z,74.29
2019-05-16T19:16:50.079Z,74.29
2019-05-16T19:19:25.455Z,73.80
2019-05-16T19:21:59.490Z,74.62
2019-05-16T19:24:32.657Z,74.75
2019-05-16T19:27:06.750Z,75.50
2019-05-16T19:29:40.072Z,75.50
2019-05-16T19:32:13.326Z,74.91
2019-05-16T19:34:46.411Z,74.81
2019-05-16T19:37:21.007Z,75.49
2019-05-16T19:39:54.073Z,75.03
2019-05-16T19:42:29.864Z,75.45
2019-05-16T19:45:02.458Z,75.45
2019-05-16T19:47:40.775Z,75.40
2019-05-16T19:50:11.167Z,76.21
2019-05-16T19:52:44.100Z,76.10
2019-05-16T19:55:17.215Z,76.10
2019-05-16T19:57:50.162Z,76.13
2019-05-16T20:00:26.419Z,76.20
2019-05-16T20:02:58.793Z,76.20
2019-05-16T20:05:31.695Z,75.86
2019-05-16T20:08:06.634Z,76.09
2019-05-16T20:10:40.292Z,76.09
2019-05-16T20:13:13.229Z,75.92
2019-05-16T20:15:47.107Z,75.81
2019-05-16T20:18:20.261Z,75.59
2019-05-16T20:20:53.222Z,75.59
2019-05-16T20:23:27.579Z,75.75
2019-05-16T20:26:00.909Z,75.93
2019-05-16T20:28:34.037Z,75.38
2019-05-16T20:31:07.870Z,75.38
2019-05-16T20:33:40.983Z,75.50
2019-05-16T20:36:13.911Z,75.33
2019-05-16T20:38:46.965Z,75.36
2019-05-16T20:41:19.836Z,75.30
2019-05-16T20:43:52.741Z,75.24
2019-05-16T20:46:25.853Z,75.24
2019-05-16T20:48:59.126Z,75.51
2019-05-16T20:51:32.038Z,76.07
2019-05-16T20:54:06.951Z,76.30
2019-05-16T20:56:39.629Z,76.25
2019-05-16T20:59:12.461Z,76.25
2019-05-16T21:01:46.468Z,76.29
2019-05-16T21:04:19.969Z,76.09
2019-05-16T21:07:00.226Z,76.36
2019-05-16T21:09:27.690Z,76.36
2019-05-16T21:12:00.568Z,77.02
2019-05-16T21:14:33.481Z,77.00
2019-05-16T21:17:06.771Z,76.74
2019-05-16T21:19:39.702Z,77.53
2019-05-16T21:22:12.677Z,77.09
2019-05-16T21:24:46.668Z,77.09
2019-05-16T21:27:19.607Z,78.24
2019-05-16T21:29:52.523Z,78.24
2019-05-16T21:32:27.021Z,78.52
2019-05-16T21:35:00.200Z,78.52
2019-05-16T21:37:33.088Z,78.50
2019-05-16T21:40:07.991Z,78.61
2019-05-16T21:42:41.055Z,78.37
2019-05-16T21:45:14.148Z,78.43
2019-05-16T21:47:47.158Z,78.57
2019-05-16T21:50:20.328Z,79.19
2019-05-16T21:52:53.213Z,79.57
2019-05-16T21:55:27.349Z,79.94
2019-05-16T21:58:01.788Z,79.94
2019-05-16T22:00:37.699Z,79.17
2019-05-16T22:03:10.984Z,79.17
2019-05-16T22:05:46.317Z,79.44
2019-05-16T22:08:18.857Z,79.44
2019-05-16T22:10:52.013Z,80.12
2019-05-16T22:13:24.948Z,80.41
2019-05-16T22:15:57.799Z,80.94
2019-05-16T22:18:30.784Z,81.96
2019-05-16T22:21:03.705Z,81.86
2019-05-16T22:23:37.399Z,81.86
2019-05-16T22:26:10.425Z,81.74
2019-05-16T22:28:43.411Z,81.74
2019-05-16T22:31:16.593Z,82.02
2019-05-16T22:33:49.525Z,82.72
2019-05-16T22:36:22.367Z,82.72
2019-05-16T22:38:56.788Z,83.79
2019-05-16T22:41:29.905Z,83.79
2019-05-16T22:44:03.005Z,84.58
2019-05-16T22:46:37.171Z,84.58
2019-05-16T22:49:10.259Z,84.77
2019-05-16T22:51:43.100Z,85.38
2019-05-16T22:54:17.251Z,85.38
2019-05-16T22:56:50.252Z,85.82
2019-05-16T22:59:23.152Z,86.08
2019-05-16T23:01:56.970Z,86.53
2019-05-16T23:04:29.865Z,86.53
2019-05-16T23:07:02.784Z,87.31
2019-05-16T23:09:36.580Z,89.10
2019-05-16T23:12:09.592Z,89.10
2019-05-16T23:14:42.470Z,89.69
2019-05-16T23:17:17.246Z,89.69
2019-05-16T23:19:50.677Z,90.02
2019-05-16T23:22:23.523Z,89.79
2019-05-16T23:24:57.056Z,89.37
2019-05-16T23:27:29.909Z,89.37
2019-05-16T23:30:03.171Z,89.93
2019-05-16T23:32:36.516Z,89.77
2019-05-16T23:35:10.085Z,88.92
2019-05-16T23:37:42.995Z,88.92
2019-05-16T23:40:16.057Z,88.37
2019-05-16T23:42:48.889Z,87.93
2019-05-16T23:45:21.787Z,87.82
2019-05-16T23:47:56.399Z,87.42
2019-05-16T23:50:29.408Z,87.42
2019-05-16T23:53:02.310Z,87.52
2019-05-16T23:55:37.152Z,87.26
2019-05-16T23:58:10.241Z,87.21
